sensor_id;sensor_type;location;lat;lon;timestamp;P1;durP1;ratioP1;P2;durP2;ratioP2
38783;SDS011;24531;45.502;12.238;2024-03-22T00:01:47;79.45;;;52.03;;
38783;SDS011;24531;45.502;12.238;2024-03-22T00:04:13;77.20;;;51.25;;
38783;SDS011;24531;45.502;12.238;2024-03-22T00:06:40;76.28;;;51.03;;
38783;SDS011;24531;45.502;12.238;2024-03-22T00:09:07;80.30;;;51.58;;
38783;SDS011;24531;45.502;12.238;2024-03-22T00:11:32;70.78;;;48.28;;
38783;SDS011;24531;45.502;12.238;2024-03-22T00:13:58;75.97;;;48.28;;
38783;SDS011;24531;45.502;12.238;2024-03-22T00:16:23;75.68;;;47.60;;
38783;SDS011;24531;45.502;12.238;2024-03-22T00:18:49;74.07;;;48.22;;
38783;SDS011;24531;45.502;12.238;2024-03-22T00:21:16;75.05;;;50.78;;
38783;SDS011;24531;45.502;12.238;2024-03-22T00:23:42;74.28;;;49.45;;
38783;SDS011;24531;45.502;12.238;2024-03-22T00:26:08;81.18;;;51.53;;
38783;SDS011;24531;45.502;12.238;2024-03-22T00:28:34;76.00;;;50.72;;
38783;SDS011;24531;45.502;12.238;2024-03-22T00:31:00;81.07;;;51.05;;
38783;SDS011;24531;45.502;12.238;2024-03-22T00:33:25;73.28;;;50.33;;
38783;SDS011;24531;45.502;12.238;2024-03-22T00:35:53;73.47;;;49.17;;
38783;SDS011;24531;45.502;12.238;2024-03-22T00:38:18;78.10;;;50.67;;
38783;SDS011;24531;45.502;12.238;2024-03-22T00:40:44;73.47;;;49.22;;
38783;SDS011;24531;45.502;12.238;2024-03-22T00:43:09;76.75;;;50.70;;
38783;SDS011;24531;45.502;12.238;2024-03-22T00:45:36;76.72;;;50.40;;
38783;SDS011;24531;45.502;12.238;2024-03-22T00:48:02;75.53;;;51.60;;
38783;SDS011;24531;45.502;12.238;2024-03-22T00:50:28;76.25;;;49.20;;
38783;SDS011;24531;45.502;12.238;2024-03-22T00:52:56;72.47;;;48.10;;
38783;SDS011;24531;45.502;12.238;2024-03-22T00:55:22;75.55;;;48.33;;
38783;SDS011;24531;45.502;12.238;2024-03-22T00:57:48;72.70;;;49.13;;
38783;SDS011;24531;45.502;12.238;2024-03-22T01:00:14;72.35;;;47.22;;
38783;SDS011;24531;45.502;12.238;2024-03-22T01:02:41;71.32;;;48.30;;
38783;SDS011;24531;45.502;12.238;2024-03-22T01:05:07;73.38;;;49.75;;
38783;SDS011;24531;45.502;12.238;2024-03-22T01:07:33;72.68;;;46.83;;
38783;SDS011;24531;45.502;12.238;2024-03-22T01:09:58;79.30;;;49.90;;
38783;SDS011;24531;45.502;12.238;2024-03-22T01:12:24;70.88;;;48.75;;
38783;SDS011;24531;45.502;12.238;2024-03-22T01:14:50;77.20;;;51.58;;
38783;SDS011;24531;45.502;12.238;2024-03-22T01:17:16;75.57;;;50.63;;
38783;SDS011;24531;45.502;12.238;2024-03-22T01:19:42;72.25;;;49.95;;
38783;SDS011;24531;45.502;12.238;2024-03-22T01:22:07;70.82;;;49.30;;
38783;SDS011;24531;45.502;12.238;2024-03-22T01:24:33;74.18;;;51.63;;
38783;SDS011;24531;45.502;12.238;2024-03-22T01:26:59;72.72;;;48.45;;
38783;SDS011;24531;45.502;12.238;2024-03-22T01:29:24;72.43;;;48.55;;
38783;SDS011;24531;45.502;12.238;2024-03-22T01:31:55;72.30;;;47.38;;
38783;SDS011;24531;45.502;12.238;2024-03-22T01:34:21;64.28;;;46.63;;
38783;SDS011;24531;45.502;12.238;2024-03-22T01:36:50;66.78;;;46.92;;
38783;SDS011;24531;45.502;12.238;2024-03-22T01:39:16;68.57;;;47.00;;
38783;SDS011;24531;45.502;12.238;2024-03-22T01:41:46;74.20;;;48.22;;
38783;SDS011;24531;45.502;12.238;2024-03-22T01:44:14;65.55;;;45.60;;
38783;SDS011;24531;45.502;12.238;2024-03-22T01:46:44;71.47;;;48.08;;
38783;SDS011;24531;45.502;12.238;2024-03-22T01:49:11;73.00;;;48.75;;
38783;SDS011;24531;45.502;12.238;2024-03-22T01:51:39;65.97;;;46.33;;
38783;SDS011;24531;45.502;12.238;2024-03-22T01:54:05;66.68;;;46.03;;
38783;SDS011;24531;45.502;12.238;2024-03-22T01:56:36;72.38;;;48.58;;
38783;SDS011;24531;45.502;12.238;2024-03-22T01:59:02;73.63;;;47.58;;
38783;SDS011;24531;45.502;12.238;2024-03-22T02:01:29;67.72;;;46.08;;
38783;SDS011;24531;45.502;12.238;2024-03-22T02:03:55;64.00;;;46.33;;
38783;SDS011;24531;45.502;12.238;2024-03-22T02:06:21;71.10;;;47.60;;
38783;SDS011;24531;45.502;12.238;2024-03-22T02:08:46;69.25;;;46.60;;
38783;SDS011;24531;45.502;12.238;2024-03-22T02:11:12;68.53;;;48.00;;
38783;SDS011;24531;45.502;12.238;2024-03-22T02:13:38;62.58;;;45.35;;
38783;SDS011;24531;45.502;12.238;2024-03-22T02:16:04;67.63;;;47.25;;
38783;SDS011;24531;45.502;12.238;2024-03-22T02:18:32;64.70;;;45.85;;
38783;SDS011;24531;45.502;12.238;2024-03-22T02:20:58;65.88;;;46.05;;
38783;SDS011;24531;45.502;12.238;2024-03-22T02:23:30;70.25;;;47.53;;
38783;SDS011;24531;45.502;12.238;2024-03-22T02:26:00;64.55;;;44.47;;
38783;SDS011;24531;45.502;12.238;2024-03-22T02:28:26;68.30;;;46.45;;
38783;SDS011;24531;45.502;12.238;2024-03-22T02:30:52;65.38;;;46.17;;
38783;SDS011;24531;45.502;12.238;2024-03-22T02:33:17;65.55;;;46.00;;
38783;SDS011;24531;45.502;12.238;2024-03-22T02:35:43;67.43;;;46.72;;
38783;SDS011;24531;45.502;12.238;2024-03-22T02:38:11;72.38;;;48.33;;
38783;SDS011;24531;45.502;12.238;2024-03-22T02:40:40;62.42;;;44.92;;
38783;SDS011;24531;45.502;12.238;2024-03-22T02:52:14;64.38;;;45.17;;
38783;SDS011;24531;45.502;12.238;2024-03-22T02:55:26;63.22;;;43.70;;
38783;SDS011;24531;45.502;12.238;2024-03-22T03:10:11;60.83;;;42.42;;
38783;SDS011;24531;45.502;12.238;2024-03-22T03:47:12;57.38;;;39.60;;
38783;SDS011;24531;45.502;12.238;2024-03-22T03:53:45;54.08;;;37.97;;
38783;SDS011;24531;45.502;12.238;2024-03-22T04:31:46;53.95;;;37.25;;
38783;SDS011;24531;45.502;12.238;2024-03-22T04:34:15;50.05;;;35.65;;
38783;SDS011;24531;45.502;12.238;2024-03-22T05:04:12;52.22;;;35.15;;
38783;SDS011;24531;45.502;12.238;2024-03-22T05:06:38;54.85;;;37.22;;
38783;SDS011;24531;45.502;12.238;2024-03-22T05:09:04;51.17;;;35.97;;
38783;SDS011;24531;45.502;12.238;2024-03-22T05:11:29;49.05;;;35.08;;
38783;SDS011;24531;45.502;12.238;2024-03-22T05:13:57;56.03;;;36.35;;
38783;SDS011;24531;45.502;12.238;2024-03-22T05:16:22;51.80;;;37.83;;
38783;SDS011;24531;45.502;12.238;2024-03-22T05:18:48;53.50;;;37.97;;
38783;SDS011;24531;45.502;12.238;2024-03-22T05:21:14;53.85;;;36.25;;
38783;SDS011;24531;45.502;12.238;2024-03-22T05:23:39;49.47;;;35.63;;
38783;SDS011;24531;45.502;12.238;2024-03-22T05:26:05;52.45;;;36.15;;
38783;SDS011;24531;45.502;12.238;2024-03-22T05:28:31;50.25;;;35.78;;
38783;SDS011;24531;45.502;12.238;2024-03-22T05:30:56;49.15;;;36.20;;
38783;SDS011;24531;45.502;12.238;2024-03-22T05:33:22;49.22;;;35.85;;
38783;SDS011;24531;45.502;12.238;2024-03-22T05:35:47;50.20;;;36.17;;
38783;SDS011;24531;45.502;12.238;2024-03-22T05:38:13;49.63;;;35.85;;
38783;SDS011;24531;45.502;12.238;2024-03-22T05:40:38;57.45;;;37.10;;
38783;SDS011;24531;45.502;12.238;2024-03-22T05:43:04;53.28;;;35.45;;
38783;SDS011;24531;45.502;12.238;2024-03-22T05:45:30;55.03;;;37.03;;
38783;SDS011;24531;45.502;12.238;2024-03-22T05:47:55;49.70;;;35.03;;
38783;SDS011;24531;45.502;12.238;2024-03-22T05:50:21;51.55;;;34.90;;
38783;SDS011;24531;45.502;12.238;2024-03-22T05:52:47;50.72;;;36.13;;
38783;SDS011;24531;45.502;12.238;2024-03-22T05:58:13;51.13;;;35.92;;
38783;SDS011;24531;45.502;12.238;2024-03-22T06:00:39;53.15;;;36.03;;
38783;SDS011;24531;45.502;12.238;2024-03-22T06:03:04;51.40;;;35.38;;
38783;SDS011;24531;45.502;12.238;2024-03-22T06:05:30;53.35;;;38.30;;
38783;SDS011;24531;45.502;12.238;2024-03-22T06:07:56;59.30;;;36.10;;
38783;SDS011;24531;45.502;12.238;2024-03-22T06:10:21;51.50;;;36.65;;
38783;SDS011;24531;45.502;12.238;2024-03-22T06:12:47;53.92;;;36.85;;
38783;SDS011;24531;45.502;12.238;2024-03-22T06:15:12;50.50;;;35.88;;
38783;SDS011;24531;45.502;12.238;2024-03-22T06:17:38;51.08;;;35.08;;
38783;SDS011;24531;45.502;12.238;2024-03-22T06:20:04;47.67;;;34.47;;
38783;SDS011;24531;45.502;12.238;2024-03-22T06:22:30;55.72;;;35.45;;
38783;SDS011;24531;45.502;12.238;2024-03-22T06:24:56;47.10;;;34.67;;
38783;SDS011;24531;45.502;12.238;2024-03-22T06:27:22;49.75;;;35.05;;
38783;SDS011;24531;45.502;12.238;2024-03-22T06:29:47;49.55;;;35.67;;
38783;SDS011;24531;45.502;12.238;2024-03-22T06:32:13;47.97;;;35.67;;
38783;SDS011;24531;45.502;12.238;2024-03-22T06:34:39;53.67;;;35.63;;
38783;SDS011;24531;45.502;12.238;2024-03-22T06:37:04;52.33;;;34.83;;
38783;SDS011;24531;45.502;12.238;2024-03-22T06:39:30;45.33;;;31.67;;
38783;SDS011;24531;45.502;12.238;2024-03-22T06:41:55;42.95;;;31.80;;
38783;SDS011;24531;45.502;12.238;2024-03-22T06:44:21;39.10;;;30.05;;
38783;SDS011;24531;45.502;12.238;2024-03-22T06:46:47;42.72;;;31.92;;
38783;SDS011;24531;45.502;12.238;2024-03-22T06:49:12;42.80;;;28.45;;
38783;SDS011;24531;45.502;12.238;2024-03-22T06:51:38;42.28;;;30.73;;
38783;SDS011;24531;45.502;12.238;2024-03-22T06:54:04;42.97;;;30.90;;
38783;SDS011;24531;45.502;12.238;2024-03-22T06:56:29;43.75;;;30.08;;
38783;SDS011;24531;45.502;12.238;2024-03-22T06:58:55;44.50;;;29.98;;
38783;SDS011;24531;45.502;12.238;2024-03-22T07:01:20;40.97;;;29.58;;
38783;SDS011;24531;45.502;12.238;2024-03-22T07:03:46;42.88;;;30.25;;
38783;SDS011;24531;45.502;12.238;2024-03-22T07:06:13;42.53;;;29.30;;
38783;SDS011;24531;45.502;12.238;2024-03-22T07:08:39;41.38;;;27.58;;
38783;SDS011;24531;45.502;12.238;2024-03-22T07:11:05;41.85;;;30.33;;
38783;SDS011;24531;45.502;12.238;2024-03-22T07:13:31;36.40;;;28.08;;
38783;SDS011;24531;45.502;12.238;2024-03-22T07:15:57;42.38;;;29.10;;
38783;SDS011;24531;45.502;12.238;2024-03-22T07:18:22;38.80;;;29.15;;
38783;SDS011;24531;45.502;12.238;2024-03-22T07:20:48;35.92;;;29.08;;
38783;SDS011;24531;45.502;12.238;2024-03-22T07:23:14;38.63;;;28.23;;
38783;SDS011;24531;45.502;12.238;2024-03-22T07:25:39;38.28;;;29.08;;
38783;SDS011;24531;45.502;12.238;2024-03-22T07:28:07;39.72;;;28.73;;
38783;SDS011;24531;45.502;12.238;2024-03-22T07:30:33;36.30;;;28.70;;
38783;SDS011;24531;45.502;12.238;2024-03-22T07:33:00;36.08;;;27.77;;
38783;SDS011;24531;45.502;12.238;2024-03-22T07:35:26;36.90;;;27.13;;
38783;SDS011;24531;45.502;12.238;2024-03-22T07:37:51;33.80;;;26.70;;
38783;SDS011;24531;45.502;12.238;2024-03-22T07:40:17;33.30;;;25.45;;
38783;SDS011;24531;45.502;12.238;2024-03-22T07:42:43;35.92;;;25.13;;
38783;SDS011;24531;45.502;12.238;2024-03-22T07:55:27;30.05;;;22.38;;
38783;SDS011;24531;45.502;12.238;2024-03-22T07:57:53;30.75;;;21.15;;
38783;SDS011;24531;45.502;12.238;2024-03-22T08:05:29;21.63;;;17.77;;
38783;SDS011;24531;45.502;12.238;2024-03-22T08:33:05;14.65;;;11.93;;
38783;SDS011;24531;45.502;12.238;2024-03-22T08:35:40;17.25;;;13.70;;
38783;SDS011;24531;45.502;12.238;2024-03-22T08:41:26;15.20;;;11.82;;
38783;SDS011;24531;45.502;12.238;2024-03-22T08:43:52;15.65;;;12.38;;
38783;SDS011;24531;45.502;12.238;2024-03-22T08:46:18;15.65;;;12.90;;
38783;SDS011;24531;45.502;12.238;2024-03-22T08:48:44;15.57;;;12.48;;
38783;SDS011;24531;45.502;12.238;2024-03-22T08:51:09;17.60;;;11.02;;
38783;SDS011;24531;45.502;12.238;2024-03-22T08:53:35;16.88;;;10.45;;
38783;SDS011;24531;45.502;12.238;2024-03-22T08:56:01;12.52;;;10.52;;
38783;SDS011;24531;45.502;12.238;2024-03-22T08:58:26;10.63;;;8.38;;
38783;SDS011;24531;45.502;12.238;2024-03-22T09:00:52;7.75;;;6.95;;
38783;SDS011;24531;45.502;12.238;2024-03-22T09:03:20;8.15;;;6.20;;
38783;SDS011;24531;45.502;12.238;2024-03-22T09:05:46;10.23;;;6.18;;
38783;SDS011;24531;45.502;12.238;2024-03-22T09:08:12;9.35;;;5.50;;
38783;SDS011;24531;45.502;12.238;2024-03-22T09:10:38;7.65;;;5.32;;
38783;SDS011;24531;45.502;12.238;2024-03-22T09:13:03;7.65;;;6.05;;
38783;SDS011;24531;45.502;12.238;2024-03-22T09:15:30;8.40;;;6.32;;
38783;SDS011;24531;45.502;12.238;2024-03-22T09:17:56;6.47;;;5.20;;
38783;SDS011;24531;45.502;12.238;2024-03-22T09:20:21;6.65;;;4.63;;
38783;SDS011;24531;45.502;12.238;2024-03-22T09:22:48;6.30;;;5.20;;
38783;SDS011;24531;45.502;12.238;2024-03-22T09:25:14;6.18;;;4.32;;
38783;SDS011;24531;45.502;12.238;2024-03-22T09:27:40;4.65;;;3.58;;
38783;SDS011;24531;45.502;12.238;2024-03-22T09:30:07;3.00;;;2.30;;
38783;SDS011;24531;45.502;12.238;2024-03-22T09:32:33;4.03;;;3.25;;
38783;SDS011;24531;45.502;12.238;2024-03-22T09:34:58;3.38;;;2.97;;
38783;SDS011;24531;45.502;12.238;2024-03-22T09:37:24;2.67;;;2.20;;
38783;SDS011;24531;45.502;12.238;2024-03-22T09:39:49;3.35;;;2.60;;
38783;SDS011;24531;45.502;12.238;2024-03-22T09:42:16;3.80;;;3.03;;
38783;SDS011;24531;45.502;12.238;2024-03-22T09:44:46;4.05;;;3.47;;
38783;SDS011;24531;45.502;12.238;2024-03-22T09:47:16;4.70;;;3.75;;
38783;SDS011;24531;45.502;12.238;2024-03-22T09:49:46;5.05;;;3.10;;
38783;SDS011;24531;45.502;12.238;2024-03-22T09:52:13;2.63;;;2.28;;
38783;SDS011;24531;45.502;12.238;2024-03-22T09:54:41;3.20;;;2.67;;
38783;SDS011;24531;45.502;12.238;2024-03-22T09:57:08;3.25;;;2.70;;
38783;SDS011;24531;45.502;12.238;2024-03-22T09:59:44;3.53;;;2.75;;
38783;SDS011;24531;45.502;12.238;2024-03-22T10:02:11;4.47;;;3.88;;
38783;SDS011;24531;45.502;12.238;2024-03-22T10:04:38;5.78;;;2.78;;
38783;SDS011;24531;45.502;12.238;2024-03-22T10:07:04;2.72;;;2.20;;
38783;SDS011;24531;45.502;12.238;2024-03-22T10:09:30;3.67;;;2.53;;
38783;SDS011;24531;45.502;12.238;2024-03-22T10:11:57;3.85;;;2.55;;
38783;SDS011;24531;45.502;12.238;2024-03-22T10:14:23;3.88;;;2.80;;
38783;SDS011;24531;45.502;12.238;2024-03-22T10:16:52;2.85;;;2.58;;
38783;SDS011;24531;45.502;12.238;2024-03-22T10:19:19;3.30;;;3.00;;
38783;SDS011;24531;45.502;12.238;2024-03-22T10:21:45;3.47;;;2.83;;
38783;SDS011;24531;45.502;12.238;2024-03-22T10:24:12;3.08;;;2.60;;
38783;SDS011;24531;45.502;12.238;2024-03-22T10:26:38;5.10;;;2.80;;
38783;SDS011;24531;45.502;12.238;2024-03-22T10:29:08;3.13;;;2.83;;
38783;SDS011;24531;45.502;12.238;2024-03-22T10:31:34;5.97;;;2.80;;
38783;SDS011;24531;45.502;12.238;2024-03-22T10:34:20;4.88;;;3.20;;
38783;SDS011;24531;45.502;12.238;2024-03-22T10:55:36;4.75;;;2.95;;
38783;SDS011;24531;45.502;12.238;2024-03-22T11:47:10;11.50;;;4.47;;
38783;SDS011;24531;45.502;12.238;2024-03-22T12:11:10;3.95;;;2.83;;
38783;SDS011;24531;45.502;12.238;2024-03-22T12:13:36;4.20;;;2.47;;
38783;SDS011;24531;45.502;12.238;2024-03-22T12:16:03;5.80;;;3.08;;
38783;SDS011;24531;45.502;12.238;2024-03-22T12:18:31;4.70;;;2.40;;
38783;SDS011;24531;45.502;12.238;2024-03-22T12:20:57;3.92;;;2.72;;
38783;SDS011;24531;45.502;12.238;2024-03-22T12:23:22;5.97;;;3.05;;
38783;SDS011;24531;45.502;12.238;2024-03-22T12:25:49;5.82;;;2.60;;
38783;SDS011;24531;45.502;12.238;2024-03-22T12:28:16;3.65;;;2.00;;
38783;SDS011;24531;45.502;12.238;2024-03-22T12:30:41;5.13;;;2.35;;
38783;SDS011;24531;45.502;12.238;2024-03-22T12:33:08;3.45;;;2.30;;
38783;SDS011;24531;45.502;12.238;2024-03-22T12:35:35;3.00;;;2.50;;
38783;SDS011;24531;45.502;12.238;2024-03-22T12:38:01;4.80;;;2.10;;
38783;SDS011;24531;45.502;12.238;2024-03-22T12:40:28;3.13;;;1.98;;
38783;SDS011;24531;45.502;12.238;2024-03-22T12:42:54;4.00;;;1.95;;
38783;SDS011;24531;45.502;12.238;2024-03-22T12:45:21;5.38;;;1.88;;
38783;SDS011;24531;45.502;12.238;2024-03-22T12:47:47;2.75;;;1.75;;
38783;SDS011;24531;45.502;12.238;2024-03-22T12:50:12;3.42;;;2.25;;
38783;SDS011;24531;45.502;12.238;2024-03-22T12:52:38;3.20;;;1.67;;
38783;SDS011;24531;45.502;12.238;2024-03-22T12:55:04;3.30;;;1.90;;
38783;SDS011;24531;45.502;12.238;2024-03-22T12:57:31;2.58;;;1.70;;
38783;SDS011;24531;45.502;12.238;2024-03-22T12:59:58;7.43;;;2.00;;
38783;SDS011;24531;45.502;12.238;2024-03-22T13:02:24;1.50;;;1.20;;
38783;SDS011;24531;45.502;12.238;2024-03-22T13:04:52;2.05;;;1.48;;
38783;SDS011;24531;45.502;12.238;2024-03-22T13:07:21;3.78;;;1.88;;
38783;SDS011;24531;45.502;12.238;2024-03-22T13:09:47;2.72;;;1.63;;
38783;SDS011;24531;45.502;12.238;2024-03-22T13:12:13;3.95;;;1.65;;
38783;SDS011;24531;45.502;12.238;2024-03-22T13:14:38;2.40;;;1.88;;
38783;SDS011;24531;45.502;12.238;2024-03-22T13:17:04;5.20;;;1.60;;
38783;SDS011;24531;45.502;12.238;2024-03-22T13:19:29;3.67;;;1.83;;
38783;SDS011;24531;45.502;12.238;2024-03-22T13:21:55;2.55;;;1.58;;
38783;SDS011;24531;45.502;12.238;2024-03-22T13:24:21;5.97;;;1.50;;
38783;SDS011;24531;45.502;12.238;2024-03-22T13:26:47;3.65;;;1.35;;
38783;SDS011;24531;45.502;12.238;2024-03-22T13:29:13;3.72;;;1.42;;
38783;SDS011;24531;45.502;12.238;2024-03-22T13:31:39;1.50;;;1.40;;
38783;SDS011;24531;45.502;12.238;2024-03-22T13:34:05;2.65;;;1.30;;
38783;SDS011;24531;45.502;12.238;2024-03-22T13:39:23;3.72;;;1.33;;
38783;SDS011;24531;45.502;12.238;2024-03-22T13:44:24;3.05;;;1.20;;
38783;SDS011;24531;45.502;12.238;2024-03-22T13:46:50;1.83;;;1.27;;
38783;SDS011;24531;45.502;12.238;2024-03-22T13:49:16;3.58;;;1.60;;
38783;SDS011;24531;45.502;12.238;2024-03-22T13:51:45;1.45;;;1.00;;
38783;SDS011;24531;45.502;12.238;2024-03-22T13:54:12;1.30;;;1.20;;
38783;SDS011;24531;45.502;12.238;2024-03-22T13:56:37;1.65;;;1.20;;
38783;SDS011;24531;45.502;12.238;2024-03-22T13:59:04;1.50;;;1.00;;
38783;SDS011;24531;45.502;12.238;2024-03-22T14:01:31;2.75;;;1.08;;
38783;SDS011;24531;45.502;12.238;2024-03-22T14:03:57;1.88;;;1.10;;
38783;SDS011;24531;45.502;12.238;2024-03-22T14:06:23;2.20;;;1.15;;
38783;SDS011;24531;45.502;12.238;2024-03-22T14:08:48;2.03;;;1.38;;
38783;SDS011;24531;45.502;12.238;2024-03-22T14:11:14;2.30;;;1.35;;
38783;SDS011;24531;45.502;12.238;2024-03-22T14:13:39;2.42;;;1.60;;
38783;SDS011;24531;45.502;12.238;2024-03-22T14:16:05;2.95;;;1.33;;
38783;SDS011;24531;45.502;12.238;2024-03-22T14:18:32;1.98;;;1.45;;
38783;SDS011;24531;45.502;12.238;2024-03-22T14:20:58;3.08;;;1.90;;
38783;SDS011;24531;45.502;12.238;2024-03-22T14:23:23;2.30;;;1.73;;
38783;SDS011;24531;45.502;12.238;2024-03-22T14:25:49;4.43;;;1.50;;
38783;SDS011;24531;45.502;12.238;2024-03-22T14:28:15;1.67;;;1.10;;
38783;SDS011;24531;45.502;12.238;2024-03-22T14:30:41;1.70;;;1.33;;
38783;SDS011;24531;45.502;12.238;2024-03-22T14:33:06;1.35;;;1.15;;
38783;SDS011;24531;45.502;12.238;2024-03-22T14:35:32;1.48;;;1.30;;
38783;SDS011;24531;45.502;12.238;2024-03-22T14:37:59;3.20;;;1.70;;
38783;SDS011;24531;45.502;12.238;2024-03-22T14:40:25;5.47;;;1.67;;
38783;SDS011;24531;45.502;12.238;2024-03-22T14:42:51;4.35;;;1.50;;
38783;SDS011;24531;45.502;12.238;2024-03-22T14:45:17;4.03;;;1.90;;
38783;SDS011;24531;45.502;12.238;2024-03-22T14:47:47;4.55;;;1.83;;
38783;SDS011;24531;45.502;12.238;2024-03-22T14:50:13;4.28;;;1.95;;
38783;SDS011;24531;45.502;12.238;2024-03-22T14:52:38;3.95;;;1.90;;
38783;SDS011;24531;45.502;12.238;2024-03-22T14:57:55;2.40;;;1.90;;
38783;SDS011;24531;45.502;12.238;2024-03-22T15:00:21;2.35;;;1.70;;
38783;SDS011;24531;45.502;12.238;2024-03-22T15:02:51;1.30;;;1.20;;
38783;SDS011;24531;45.502;12.238;2024-03-22T15:05:17;2.22;;;1.50;;
38783;SDS011;24531;45.502;12.238;2024-03-22T15:07:43;3.45;;;1.50;;
38783;SDS011;24531;45.502;12.238;2024-03-22T15:10:09;2.65;;;1.30;;
38783;SDS011;24531;45.502;12.238;2024-03-22T15:12:35;1.98;;;1.30;;
38783;SDS011;24531;45.502;12.238;2024-03-22T15:15:00;5.90;;;1.42;;
38783;SDS011;24531;45.502;12.238;2024-03-22T15:17:26;1.77;;;1.42;;
38783;SDS011;24531;45.502;12.238;2024-03-22T15:19:52;1.60;;;1.48;;
38783;SDS011;24531;45.502;12.238;2024-03-22T15:22:17;2.83;;;1.45;;
38783;SDS011;24531;45.502;12.238;2024-03-22T15:24:47;2.45;;;1.30;;
38783;SDS011;24531;45.502;12.238;2024-03-22T15:27:13;1.92;;;1.13;;
38783;SDS011;24531;45.502;12.238;2024-03-22T15:29:40;2.08;;;1.13;;
38783;SDS011;24531;45.502;12.238;2024-03-22T15:34:41;1.20;;;1.10;;
38783;SDS011;24531;45.502;12.238;2024-03-22T15:37:07;1.92;;;1.42;;
38783;SDS011;24531;45.502;12.238;2024-03-22T15:39:33;4.28;;;1.33;;
38783;SDS011;24531;45.502;12.238;2024-03-22T15:41:58;3.15;;;1.23;;
38783;SDS011;24531;45.502;12.238;2024-03-22T15:44:24;5.43;;;1.23;;
38783;SDS011;24531;45.502;12.238;2024-03-22T15:46:49;3.95;;;1.42;;
38783;SDS011;24531;45.502;12.238;2024-03-22T15:49:15;2.53;;;1.40;;
38783;SDS011;24531;45.502;12.238;2024-03-22T15:51:41;2.70;;;1.30;;
38783;SDS011;24531;45.502;12.238;2024-03-22T15:54:11;1.77;;;1.30;;
38783;SDS011;24531;45.502;12.238;2024-03-22T15:56:36;1.90;;;1.23;;
38783;SDS011;24531;45.502;12.238;2024-03-22T15:59:02;2.28;;;1.10;;
38783;SDS011;24531;45.502;12.238;2024-03-22T16:01:30;4.10;;;1.60;;
38783;SDS011;24531;45.502;12.238;2024-03-22T16:03:55;6.78;;;1.67;;
38783;SDS011;24531;45.502;12.238;2024-03-22T16:06:21;5.15;;;1.60;;
38783;SDS011;24531;45.502;12.238;2024-03-22T16:08:46;2.88;;;1.10;;
38783;SDS011;24531;45.502;12.238;2024-03-22T16:11:12;2.42;;;1.33;;
38783;SDS011;24531;45.502;12.238;2024-03-22T16:13:38;1.92;;;1.50;;
38783;SDS011;24531;45.502;12.238;2024-03-22T16:16:03;2.33;;;1.50;;
38783;SDS011;24531;45.502;12.238;2024-03-22T16:18:29;10.48;;;2.22;;
38783;SDS011;24531;45.502;12.238;2024-03-22T16:20:57;2.47;;;1.45;;
38783;SDS011;24531;45.502;12.238;2024-03-22T16:23:23;2.67;;;2.00;;
38783;SDS011;24531;45.502;12.238;2024-03-22T16:25:48;2.05;;;1.30;;
38783;SDS011;24531;45.502;12.238;2024-03-22T16:28:14;2.53;;;1.63;;
38783;SDS011;24531;45.502;12.238;2024-03-22T16:30:39;2.80;;;1.40;;
38783;SDS011;24531;45.502;12.238;2024-03-22T16:33:05;5.20;;;1.58;;
38783;SDS011;24531;45.502;12.238;2024-03-22T16:35:31;2.92;;;1.70;;
38783;SDS011;24531;45.502;12.238;2024-03-22T16:37:58;3.80;;;1.63;;
38783;SDS011;24531;45.502;12.238;2024-03-22T16:40:25;2.35;;;1.50;;
38783;SDS011;24531;45.502;12.238;2024-03-22T16:42:51;6.55;;;1.55;;
38783;SDS011;24531;45.502;12.238;2024-03-22T16:45:17;1.88;;;1.50;;
38783;SDS011;24531;45.502;12.238;2024-03-22T16:47:43;3.70;;;1.48;;
38783;SDS011;24531;45.502;12.238;2024-03-22T16:50:09;5.93;;;1.70;;
38783;SDS011;24531;45.502;12.238;2024-03-22T16:52:38;4.38;;;1.63;;
38783;SDS011;24531;45.502;12.238;2024-03-22T16:55:04;5.95;;;1.65;;
38783;SDS011;24531;45.502;12.238;2024-03-22T16:57:30;2.42;;;1.52;;
38783;SDS011;24531;45.502;12.238;2024-03-22T16:59:56;2.75;;;2.08;;
38783;SDS011;24531;45.502;12.238;2024-03-22T17:02:22;2.65;;;1.75;;
38783;SDS011;24531;45.502;12.238;2024-03-22T17:04:48;4.95;;;1.95;;
38783;SDS011;24531;45.502;12.238;2024-03-22T17:07:13;3.58;;;1.77;;
38783;SDS011;24531;45.502;12.238;2024-03-22T17:09:39;4.43;;;1.85;;
38783;SDS011;24531;45.502;12.238;2024-03-22T17:12:06;4.97;;;2.38;;
38783;SDS011;24531;45.502;12.238;2024-03-22T17:14:33;1.85;;;1.65;;
38783;SDS011;24531;45.502;12.238;2024-03-22T17:16:58;3.13;;;2.17;;
38783;SDS011;24531;45.502;12.238;2024-03-22T17:19:24;3.90;;;1.80;;
38783;SDS011;24531;45.502;12.238;2024-03-22T17:21:50;3.78;;;1.90;;
38783;SDS011;24531;45.502;12.238;2024-03-22T17:24:16;6.28;;;2.45;;
38783;SDS011;24531;45.502;12.238;2024-03-22T17:26:42;7.68;;;2.15;;
38783;SDS011;24531;45.502;12.238;2024-03-22T17:29:08;7.15;;;1.92;;
38783;SDS011;24531;45.502;12.238;2024-03-22T17:31:35;4.63;;;2.10;;
38783;SDS011;24531;45.502;12.238;2024-03-22T17:34:02;8.18;;;2.42;;
38783;SDS011;24531;45.502;12.238;2024-03-22T17:36:27;6.53;;;2.35;;
38783;SDS011;24531;45.502;12.238;2024-03-22T17:38:53;4.82;;;2.05;;
38783;SDS011;24531;45.502;12.238;2024-03-22T17:41:20;4.82;;;1.85;;
38783;SDS011;24531;45.502;12.238;2024-03-22T17:43:46;3.67;;;2.22;;
38783;SDS011;24531;45.502;12.238;2024-03-22T17:46:14;9.68;;;2.28;;
38783;SDS011;24531;45.502;12.238;2024-03-22T17:48:40;4.63;;;1.90;;
38783;SDS011;24531;45.502;12.238;2024-03-22T17:51:06;3.03;;;1.77;;
38783;SDS011;24531;45.502;12.238;2024-03-22T17:53:31;5.72;;;2.05;;
38783;SDS011;24531;45.502;12.238;2024-03-22T17:55:57;3.15;;;2.00;;
38783;SDS011;24531;45.502;12.238;2024-03-22T17:58:22;8.73;;;2.08;;
38783;SDS011;24531;45.502;12.238;2024-03-22T18:00:48;4.85;;;1.92;;
38783;SDS011;24531;45.502;12.238;2024-03-22T18:03:14;7.18;;;1.77;;
38783;SDS011;24531;45.502;12.238;2024-03-22T18:05:39;3.92;;;2.17;;
38783;SDS011;24531;45.502;12.238;2024-03-22T18:08:06;4.72;;;2.00;;
38783;SDS011;24531;45.502;12.238;2024-03-22T18:10:32;5.53;;;1.73;;
38783;SDS011;24531;45.502;12.238;2024-03-22T18:12:57;5.45;;;2.20;;
38783;SDS011;24531;45.502;12.238;2024-03-22T18:15:23;3.95;;;2.10;;
38783;SDS011;24531;45.502;12.238;2024-03-22T18:17:49;2.70;;;1.63;;
38783;SDS011;24531;45.502;12.238;2024-03-22T18:20:15;3.75;;;2.40;;
38783;SDS011;24531;45.502;12.238;2024-03-22T18:22:44;4.65;;;2.17;;
38783;SDS011;24531;45.502;12.238;2024-03-22T18:25:10;8.13;;;2.90;;
38783;SDS011;24531;45.502;12.238;2024-03-22T18:27:36;5.57;;;2.97;;
38783;SDS011;24531;45.502;12.238;2024-03-22T18:30:02;8.25;;;2.97;;
38783;SDS011;24531;45.502;12.238;2024-03-22T18:32:28;8.32;;;2.63;;
38783;SDS011;24531;45.502;12.238;2024-03-22T18:34:54;10.45;;;3.47;;
38783;SDS011;24531;45.502;12.238;2024-03-22T18:37:19;6.00;;;2.80;;
38783;SDS011;24531;45.502;12.238;2024-03-22T18:39:45;8.93;;;3.08;;
38783;SDS011;24531;45.502;12.238;2024-03-22T18:42:13;4.07;;;2.92;;
38783;SDS011;24531;45.502;12.238;2024-03-22T18:44:38;8.65;;;2.75;;
38783;SDS011;24531;45.502;12.238;2024-03-22T18:47:06;7.85;;;3.13;;
38783;SDS011;24531;45.502;12.238;2024-03-22T18:49:33;8.55;;;3.20;;